createdAt,value
2022-12-20T00:01:36.045Z,2.90
2022-12-20T00:04:20.977Z,2.90
2022-12-20T00:06:47.856Z,2.90
2022-12-20T00:09:15.318Z,2.90
2022-12-20T00:11:43.316Z,2.80
2022-12-20T00:14:10.772Z,2.90
2022-12-20T00:16:39.524Z,2.90
2022-12-20T00:19:07.464Z,2.90
2022-12-20T00:21:35.983Z,2.80
2022-12-20T00:24:03.386Z,2.90
2022-12-20T00:26:32.603Z,2.80
2022-12-20T00:29:00.718Z,2.80
2022-12-20T00:31:30.147Z,2.80
2022-12-20T00:33:59.011Z,2.80
2022-12-20T00:36:27.821Z,2.80
2022-12-20T00:38:56.576Z,2.80
2022-12-20T00:41:26.391Z,2.70
2022-12-20T00:43:54.943Z,2.70
2022-12-20T00:46:23.644Z,2.70
2022-12-20T00:48:51.431Z,2.70
2022-12-20T00:51:27.101Z,2.70
2022-12-20T00:53:54.925Z,2.70
2022-12-20T00:56:22.124Z,2.70
2022-12-20T00:58:49.295Z,2.70
2022-12-20T01:01:23.545Z,2.70
2022-12-20T01:03:51.504Z,2.70
2022-12-20T01:06:19.462Z,2.70
2022-12-20T01:08:46.968Z,2.60
2022-12-20T01:11:22.255Z,2.60
2022-12-20T01:13:53.445Z,2.60
2022-12-20T01:16:22.854Z,2.60
2022-12-20T01:18:50.794Z,2.60
2022-12-20T01:21:20.069Z,2.60
2022-12-20T01:23:47.933Z,2.60
2022-12-20T01:26:17.873Z,2.50
2022-12-20T01:28:46.895Z,2.50
2022-12-20T01:31:17.671Z,2.50
2022-12-20T01:33:45.980Z,2.50
2022-12-20T01:36:16.311Z,2.50
2022-12-20T01:38:44.043Z,2.50
2022-12-20T01:41:19.925Z,2.40
2022-12-20T01:43:46.809Z,2.40
2022-12-20T01:46:14.002Z,2.40
2022-12-20T01:48:44.316Z,2.40
2022-12-20T01:51:11.681Z,2.30
2022-12-20T01:53:39.346Z,2.40
2022-12-20T01:56:08.179Z,2.40
2022-12-20T01:58:37.273Z,2.30
2022-12-20T02:01:04.274Z,2.30
2022-12-20T02:03:32.852Z,2.30
2022-12-20T02:06:16.094Z,2.30
2022-12-20T02:08:45.223Z,2.30
2022-12-20T02:11:22.219Z,2.30
2022-12-20T02:14:08.670Z,2.30
2022-12-20T02:16:59.426Z,2.30
2022-12-20T02:19:58.781Z,2.20
2022-12-20T02:22:40.826Z,2.20
2022-12-20T02:25:22.153Z,2.30
2022-12-20T02:28:09.577Z,2.20
2022-12-20T02:30:43.514Z,2.20
2022-12-20T02:33:13.087Z,2.20
2022-12-20T02:35:41.168Z,2.20
2022-12-20T02:38:34.073Z,2.20
2022-12-20T02:41:12.543Z,2.20
2022-12-20T02:44:01.967Z,2.20
2022-12-20T02:46:29.860Z,2.30
2022-12-20T02:49:01.447Z,2.30
2022-12-20T02:51:30.560Z,2.30
2022-12-20T02:53:59.332Z,2.30
2022-12-20T02:56:32.826Z,2.30
2022-12-20T02:59:07.604Z,2.20
2022-12-20T03:01:39.389Z,2.10
2022-12-20T03:04:08.226Z,2.10
2022-12-20T03:06:35.271Z,2.10
2022-12-20T03:09:02.261Z,2.20
2022-12-20T03:11:30.948Z,2.20
2022-12-20T03:13:57.894Z,2.10
2022-12-20T03:16:24.837Z,2.20
2022-12-20T03:18:51.974Z,2.20
2022-12-20T03:21:18.925Z,2.20
2022-12-20T03:23:45.863Z,2.10
2022-12-20T03:26:12.927Z,2.20
2022-12-20T03:28:40.900Z,2.20
2022-12-20T03:31:08.092Z,2.10
2022-12-20T03:33:35.209Z,2.10
2022-12-20T03:36:02.323Z,2.10
2022-12-20T03:38:29.327Z,2.10
2022-12-20T03:40:56.781Z,2.10
2022-12-20T03:43:23.763Z,2.10
2022-12-20T03:45:50.863Z,2.10
2022-12-20T03:48:18.054Z,2.10
2022-12-20T03:50:45.093Z,2.10
2022-12-20T03:53:13.093Z,2.10
2022-12-20T03:55:44.061Z,2.00
2022-12-20T03:58:12.130Z,2.00
2022-12-20T04:00:39.054Z,2.10
2022-12-20T04:03:06.217Z,2.10
2022-12-20T04:05:33.172Z,2.10
2022-12-20T04:08:00.713Z,2.10
2022-12-20T04:10:27.749Z,2.10
2022-12-20T04:12:57.186Z,2.10
2022-12-20T04:15:24.149Z,2.00
2022-12-20T04:17:52.996Z,2.00
2022-12-20T04:20:20.030Z,2.00
2022-12-20T04:22:51.843Z,2.00
2022-12-20T04:25:20.682Z,2.10
2022-12-20T04:27:47.637Z,2.10
2022-12-20T04:30:14.827Z,2.10
2022-12-20T04:32:41.853Z,2.10
2022-12-20T04:35:09.591Z,2.10
2022-12-20T04:37:36.739Z,2.10
2022-12-20T04:40:04.447Z,2.10
2022-12-20T04:42:31.455Z,2.10
2022-12-20T04:44:58.439Z,2.10
2022-12-20T04:47:25.408Z,2.10
2022-12-20T04:49:52.448Z,2.10
2022-12-20T04:52:43.462Z,2.10
2022-12-20T04:55:14.256Z,2.00
2022-12-20T04:57:41.394Z,2.10
2022-12-20T05:00:08.999Z,2.10
2022-12-20T05:02:36.129Z,2.10
2022-12-20T05:05:03.417Z,2.10
2022-12-20T05:07:30.345Z,2.10
2022-12-20T05:09:57.600Z,2.10
2022-12-20T05:12:25.137Z,2.00
2022-12-20T05:14:52.044Z,2.10
2022-12-20T05:17:19.621Z,2.00
2022-12-20T05:19:46.770Z,2.00
2022-12-20T05:22:32.225Z,2.00
2022-12-20T05:25:17.881Z,2.10
2022-12-20T05:27:44.803Z,2.10
2022-12-20T05:30:12.508Z,2.10
2022-12-20T05:32:41.511Z,2.10
2022-12-20T05:35:09.072Z,2.00
2022-12-20T05:37:36.477Z,2.10
2022-12-20T05:40:07.365Z,2.10
2022-12-20T05:42:34.348Z,2.10
2022-12-20T05:45:05.640Z,2.10
2022-12-20T05:47:34.021Z,2.10
2022-12-20T05:50:01.049Z,2.20
2022-12-20T05:52:28.333Z,2.20
2022-12-20T05:54:55.262Z,2.20
2022-12-20T05:57:22.884Z,2.20
2022-12-20T05:59:49.849Z,2.20
2022-12-20T06:02:17.286Z,2.20
2022-12-20T06:04:44.343Z,2.10
2022-12-20T06:07:11.404Z,2.30
2022-12-20T06:09:38.706Z,2.20
2022-12-20T06:12:05.874Z,2.30
2022-12-20T06:14:36.031Z,2.30
2022-12-20T06:17:03.694Z,2.20
2022-12-20T06:19:32.096Z,2.20
2022-12-20T06:21:59.728Z,2.30
2022-12-20T06:24:27.385Z,2.30
2022-12-20T06:26:54.843Z,2.30
2022-12-20T06:29:21.916Z,2.30
2022-12-20T06:31:49.040Z,2.30
2022-12-20T06:34:16.305Z,2.30
2022-12-20T06:36:43.349Z,2.40
2022-12-20T06:39:10.372Z,2.40
2022-12-20T06:41:37.869Z,2.40
2022-12-20T06:44:05.103Z,2.30
2022-12-20T06:46:32.403Z,2.40
2022-12-20T06:48:59.615Z,2.50
2022-12-20T06:51:26.747Z,2.50
2022-12-20T06:53:53.702Z,2.40
2022-12-20T06:56:20.633Z,2.50
2022-12-20T06:58:48.144Z,2.50
2022-12-20T07:01:15.333Z,2.50
2022-12-20T07:03:42.449Z,2.50
2022-12-20T07:06:09.806Z,2.60
2022-12-20T07:08:36.889Z,2.50
2022-12-20T07:11:06.263Z,2.60
2022-12-20T07:13:34.168Z,2.60
2022-12-20T07:16:03.593Z,2.50
2022-12-20T07:18:31.745Z,2.60
2022-12-20T07:21:03.801Z,2.50
2022-12-20T07:23:30.888Z,2.60
2022-12-20T07:25:59.843Z,2.60
2022-12-20T07:28:29.008Z,2.60
2022-12-20T07:31:00.909Z,2.60
2022-12-20T07:33:27.915Z,2.70
2022-12-20T07:36:04.859Z,2.60
2022-12-20T07:38:32.097Z,2.60
2022-12-20T07:40:59.564Z,2.60
2022-12-20T07:43:26.837Z,2.60
2022-12-20T07:45:57.483Z,2.60
2022-12-20T07:48:24.989Z,2.60
2022-12-20T07:50:55.903Z,2.60
2022-12-20T07:53:25.648Z,2.60
2022-12-20T07:55:54.164Z,2.70
2022-12-20T07:58:22.191Z,2.70
2022-12-20T08:00:49.883Z,2.70
2022-12-20T08:03:26.485Z,2.70
2022-12-20T08:05:57.162Z,2.60
2022-12-20T08:08:24.775Z,2.70
2022-12-20T08:10:52.138Z,2.70
2022-12-20T08:13:19.337Z,2.70
2022-12-20T08:15:46.482Z,2.70
2022-12-20T08:18:13.608Z,2.70
2022-12-20T08:20:40.826Z,2.70
2022-12-20T08:23:07.889Z,2.70
2022-12-20T08:25:41.144Z,2.70
2022-12-20T08:28:09.025Z,2.70
2022-12-20T08:30:35.989Z,2.70
2022-12-20T08:33:05.953Z,2.80
2022-12-20T08:35:33.111Z,2.70
2022-12-20T08:38:00.158Z,2.80
2022-12-20T08:40:27.774Z,2.80
2022-12-20T08:42:55.088Z,2.80
2022-12-20T08:45:22.059Z,2.80
2022-12-20T08:47:49.191Z,2.80
2022-12-20T08:50:16.310Z,2.80
2022-12-20T08:52:43.244Z,2.80
2022-12-20T08:55:12.896Z,2.80
2022-12-20T08:57:40.380Z,2.90
2022-12-20T09:00:08.076Z,2.90
2022-12-20T09:02:35.682Z,2.90
2022-12-20T09:05:05.483Z,3.00
2022-12-20T09:07:32.448Z,3.00
2022-12-20T09:09:59.463Z,2.90
2022-12-20T09:12:26.606Z,2.90
2022-12-20T09:14:53.612Z,2.90
2022-12-20T09:17:20.552Z,3.00
2022-12-20T09:19:47.535Z,3.00
2022-12-20T09:22:14.630Z,3.00
2022-12-20T09:24:41.729Z,2.90
2022-12-20T09:27:08.734Z,2.90
2022-12-20T09:29:36.099Z,2.90
2022-12-20T09:32:03.652Z,2.90
2022-12-20T09:34:30.688Z,3.00
2022-12-20T09:36:57.696Z,3.00
2022-12-20T09:39:24.703Z,2.90
2022-12-20T09:41:51.857Z,3.00
2022-12-20T09:44:30.979Z,3.00
2022-12-20T09:47:29.909Z,3.00
2022-12-20T09:49:58.086Z,3.10
2022-12-20T09:52:28.109Z,3.00
2022-12-20T09:55:17.919Z,3.10
2022-12-20T09:58:00.322Z,3.10
2022-12-20T10:00:29.656Z,3.10
2022-12-20T10:03:06.593Z,3.20
2022-12-20T10:05:50.850Z,3.20
2022-12-20T10:08:30.328Z,3.20
2022-12-20T10:11:03.599Z,3.30
2022-12-20T10:13:46.729Z,3.30
2022-12-20T10:16:37.223Z,3.30
2022-12-20T10:19:04.413Z,3.30
2022-12-20T10:21:31.820Z,3.30
2022-12-20T10:24:03.565Z,3.30
2022-12-20T10:26:35.525Z,3.30
2022-12-20T10:29:02.668Z,3.30
2022-12-20T10:31:40.256Z,3.30
2022-12-20T10:34:08.368Z,3.40
2022-12-20T10:36:38.453Z,3.40
2022-12-20T10:39:10.286Z,3.50
2022-12-20T10:41:43.211Z,3.50
2022-12-20T10:44:28.951Z,3.50
2022-12-20T10:47:01.180Z,3.50
2022-12-20T10:49:31.452Z,3.50
2022-12-20T10:52:15.634Z,3.60
2022-12-20T10:54:44.858Z,3.60
2022-12-20T10:57:19.407Z,3.50
2022-12-20T10:59:54.319Z,3.60
2022-12-20T11:02:34.912Z,3.70
2022-12-20T11:05:13.162Z,3.70
2022-12-20T11:08:33.018Z,3.70
2022-12-20T11:10:44.880Z,3.80
2022-12-20T11:13:26.787Z,3.80
2022-12-20T11:15:58.018Z,3.90
2022-12-20T11:18:50.344Z,3.90
2022-12-20T11:21:32.752Z,3.90
2022-12-20T11:24:05.729Z,3.90
2022-12-20T11:27:15.885Z,4.00
2022-12-20T11:30:09.980Z,4.00
2022-12-20T11:32:52.743Z,4.00
2022-12-20T11:35:44.429Z,4.00
2022-12-20T11:38:18.748Z,4.00
2022-12-20T11:40:55.773Z,4.00
2022-12-20T11:44:00.919Z,4.00
2022-12-20T11:46:25.548Z,4.10
2022-12-20T11:48:52.920Z,4.00
2022-12-20T11:51:35.711Z,4.00
2022-12-20T11:54:38.088Z,4.10
2022-12-20T11:57:16.597Z,4.10
2022-12-20T11:59:59.515Z,4.10
2022-12-20T12:02:45.089Z,4.10
2022-12-20T12:05:37.528Z,4.10
2022-12-20T12:08:17.965Z,4.10
2022-12-20T12:10:55.747Z,4.20
2022-12-20T12:13:36.369Z,4.20
2022-12-20T12:16:21.240Z,4.20
2022-12-20T12:18:48.864Z,4.20
2022-12-20T12:21:27.564Z,4.20
2022-12-20T12:24:18.119Z,4.20
2022-12-20T12:26:45.563Z,4.20
2022-12-20T12:29:15.292Z,4.20
2022-12-20T12:32:06.877Z,4.30
2022-12-20T12:35:03.806Z,4.30
2022-12-20T12:37:39.503Z,4.30
2022-12-20T12:40:46.091Z,4.30
2022-12-20T12:43:31.248Z,4.40
2022-12-20T12:46:01.110Z,4.40
2022-12-20T12:48:42.519Z,4.40
2022-12-20T12:51:11.023Z,4.40
2022-12-20T12:53:44.452Z,4.40
2022-12-20T12:56:43.104Z,4.50
2022-12-20T12:59:33.391Z,4.50
2022-12-20T13:02:05.910Z,4.60
2022-12-20T13:04:57.941Z,4.60
2022-12-20T13:07:33.646Z,4.60
2022-12-20T13:10:29.734Z,4.60
2022-12-20T13:13:13.656Z,4.60
2022-12-20T13:15:40.768Z,4.70
2022-12-20T13:18:16.369Z,4.70
2022-12-20T13:21:04.040Z,4.70
2022-12-20T13:23:31.116Z,4.70
2022-12-20T13:25:58.239Z,4.70
2022-12-20T13:28:25.446Z,4.70
2022-12-20T13:31:01.409Z,4.70
2022-12-20T13:33:51.996Z,4.80
2022-12-20T13:36:37.713Z,4.80
2022-12-20T13:39:23.110Z,4.80
2022-12-20T13:42:11.350Z,4.80
2022-12-20T13:44:47.414Z,4.80
2022-12-20T13:47:31.534Z,4.80
2022-12-20T13:50:03.124Z,4.80
2022-12-20T13:52:33.301Z,4.90
2022-12-20T13:55:08.864Z,4.90
2022-12-20T13:57:47.574Z,4.90
2022-12-20T14:00:22.702Z,4.90
2022-12-20T14:02:50.621Z,4.90
2022-12-20T14:05:26.873Z,4.90
2022-12-20T14:08:05.558Z,4.90
2022-12-20T14:10:34.551Z,4.90
2022-12-20T14:13:02.768Z,5.00
2022-12-20T14:15:34.207Z,5.00
2022-12-20T14:18:19.427Z,5.00
2022-12-20T14:20:50.476Z,5.00
2022-12-20T14:23:21.911Z,5.00
2022-12-20T14:25:57.092Z,5.00
2022-12-20T14:28:38.584Z,5.00
2022-12-20T14:31:07.959Z,5.00
2022-12-20T14:33:40.811Z,5.10
2022-12-20T14:36:10.263Z,5.00
2022-12-20T14:38:48.943Z,5.00
2022-12-20T14:41:31.989Z,5.10
2022-12-20T14:44:13.677Z,5.10
2022-12-20T14:46:45.381Z,5.10
2022-12-20T14:49:36.745Z,5.10
2022-12-20T14:52:14.762Z,5.10
2022-12-20T14:55:07.605Z,5.20
2022-12-20T14:57:38.053Z,5.20
2022-12-20T15:00:18.764Z,5.10
2022-12-20T15:03:01.211Z,5.20
2022-12-20T15:05:38.994Z,5.30
2022-12-20T15:08:18.648Z,5.20
2022-12-20T15:10:55.413Z,5.20
2022-12-20T15:13:29.147Z,5.20
2022-12-20T15:15:58.712Z,5.20
2022-12-20T15:18:26.156Z,5.20
2022-12-20T15:21:03.419Z,5.20
2022-12-20T15:23:30.749Z,5.20
2022-12-20T15:25:57.909Z,5.20
2022-12-20T15:28:26.966Z,5.30
2022-12-20T15:30:55.423Z,5.30
2022-12-20T15:33:32.585Z,5.30
2022-12-20T15:35:59.765Z,5.20
2022-12-20T15:38:54.904Z,5.20
2022-12-20T15:41:18.165Z,5.20
2022-12-20T15:43:45.571Z,5.30
2022-12-20T15:46:12.569Z,5.20
2022-12-20T15:48:40.481Z,5.20
2022-12-20T15:51:37.372Z,5.30
2022-12-20T15:54:09.448Z,5.30
2022-12-20T15:56:36.840Z,5.30
2022-12-20T15:59:18.079Z,5.30
2022-12-20T16:01:51.335Z,5.30
2022-12-20T16:04:21.018Z,5.20
2022-12-20T16:06:50.608Z,5.30
2022-12-20T16:09:18.178Z,5.30
2022-12-20T16:11:46.787Z,5.40
2022-12-20T16:14:19.964Z,5.30
2022-12-20T16:16:50.162Z,5.30
2022-12-20T16:19:17.482Z,5.30
2022-12-20T16:21:50.884Z,5.30
2022-12-20T16:24:20.331Z,5.30
2022-12-20T16:26:49.348Z,5.30
2022-12-20T16:29:16.649Z,5.30
2022-12-20T16:31:44.003Z,5.30
2022-12-20T16:34:15.921Z,5.30
2022-12-20T16:36:45.656Z,5.30
2022-12-20T16:39:12.979Z,5.30
2022-12-20T16:41:41.549Z,5.30
2022-12-20T16:44:16.157Z,5.20
2022-12-20T16:46:44.660Z,5.30
2022-12-20T16:49:19.967Z,5.20
2022-12-20T16:51:49.403Z,5.30
2022-12-20T16:54:25.193Z,5.30
2022-12-20T16:56:57.022Z,5.20
2022-12-20T16:59:25.339Z,5.20
2022-12-20T17:01:54.830Z,5.20
2022-12-20T17:04:22.533Z,5.20
2022-12-20T17:06:50.360Z,5.20
2022-12-20T17:12:05.848Z,5.20
2022-12-20T17:14:32.980Z,5.20
2022-12-20T17:17:00.174Z,5.20
2022-12-20T17:19:27.687Z,5.20
2022-12-20T17:24:39.819Z,5.20
2022-12-20T17:27:07.299Z,5.20
2022-12-20T17:29:35.276Z,5.30
2022-12-20T17:32:04.094Z,5.20
2022-12-20T17:34:31.757Z,5.20
2022-12-20T17:36:58.980Z,5.20
2022-12-20T17:39:26.742Z,5.20
2022-12-20T17:41:55.801Z,5.20
2022-12-20T17:44:28.025Z,5.20
2022-12-20T17:46:56.720Z,5.20
2022-12-20T17:49:24.786Z,5.20
2022-12-20T17:51:52.457Z,5.20
2022-12-20T17:54:22.395Z,5.20
2022-12-20T17:56:53.833Z,5.20
2022-12-20T17:59:22.483Z,5.20
2022-12-20T18:01:50.334Z,5.20
2022-12-20T18:04:18.189Z,5.20
2022-12-20T18:06:46.344Z,5.20
2022-12-20T18:09:19.212Z,5.30
2022-12-20T18:11:46.948Z,5.20
2022-12-20T18:14:14.203Z,5.20
2022-12-20T18:16:41.666Z,5.20
2022-12-20T18:19:15.228Z,5.20
2022-12-20T18:21:42.440Z,5.20
2022-12-20T18:24:14.357Z,5.20
2022-12-20T18:26:42.259Z,5.20
2022-12-20T18:29:11.058Z,5.20
2022-12-20T18:31:38.559Z,5.20
2022-12-20T18:34:06.232Z,5.20
2022-12-20T18:36:37.142Z,5.20
2022-12-20T18:39:06.538Z,5.20
2022-12-20T18:41:34.727Z,5.30
2022-12-20T18:44:08.101Z,5.40
2022-12-20T18:46:35.257Z,5.30
2022-12-20T18:49:03.064Z,5.30
2022-12-20T18:51:38.790Z,5.30
2022-12-20T18:54:08.193Z,5.20
2022-12-20T18:56:40.639Z,5.30
2022-12-20T18:59:13.034Z,5.30
2022-12-20T19:01:41.642Z,5.30
2022-12-20T19:04:09.841Z,5.30
2022-12-20T19:06:37.692Z,5.30
2022-12-20T19:09:08.889Z,5.20
2022-12-20T19:11:36.745Z,5.20
2022-12-20T19:14:03.925Z,5.30
2022-12-20T19:16:33.003Z,5.20
2022-12-20T19:19:04.400Z,5.20
2022-12-20T19:21:36.584Z,5.10
2022-12-20T19:24:07.193Z,5.20
2022-12-20T19:26:36.902Z,5.10
2022-12-20T19:29:05.783Z,5.10
2022-12-20T19:31:36.690Z,5.10
2022-12-20T19:34:12.050Z,5.10
2022-12-20T19:36:41.784Z,5.10
2022-12-20T19:39:17.261Z,5.10
2022-12-20T19:41:55.094Z,5.10
2022-12-20T19:44:27.239Z,5.00
2022-12-20T19:46:54.345Z,5.00
2022-12-20T19:49:21.443Z,5.00
2022-12-20T19:51:49.425Z,5.00
2022-12-20T19:54:16.607Z,5.00
2022-12-20T19:56:44.624Z,5.00
2022-12-20T19:59:13.320Z,5.00
2022-12-20T20:01:40.461Z,5.00
2022-12-20T20:04:10.242Z,5.00
2022-12-20T20:06:37.908Z,5.00
2022-12-20T20:09:05.169Z,5.00
2022-12-20T20:11:32.180Z,5.10
2022-12-20T20:14:02.519Z,5.10
2022-12-20T20:16:29.748Z,5.10
2022-12-20T20:18:57.215Z,5.10
2022-12-20T20:21:27.364Z,5.10
2022-12-20T20:23:56.669Z,5.10
2022-12-20T20:26:26.622Z,5.10
2022-12-20T20:28:54.050Z,5.10
2022-12-20T20:31:22.039Z,5.10
2022-12-20T20:33:49.610Z,5.10
2022-12-20T20:36:19.792Z,5.20
2022-12-20T20:38:47.085Z,5.20
2022-12-20T20:41:15.003Z,5.20
2022-12-20T20:43:43.311Z,5.10
2022-12-20T20:46:14.489Z,5.20
2022-12-20T20:48:43.031Z,5.20
2022-12-20T20:51:11.444Z,5.20
2022-12-20T20:53:40.009Z,5.30
2022-12-20T20:56:08.546Z,5.20
2022-12-20T20:58:38.177Z,5.20
2022-12-20T21:01:08.933Z,5.20
2022-12-20T21:03:37.441Z,5.10
2022-12-20T21:06:39.084Z,5.20
2022-12-20T21:08:54.507Z,5.20
2022-12-20T21:11:21.663Z,5.20
2022-12-20T21:13:48.965Z,5.20
2022-12-20T21:16:21.078Z,5.20
2022-12-20T21:18:57.318Z,5.20
2022-12-20T21:21:25.795Z,5.20
2022-12-20T21:23:53.480Z,5.20
2022-12-20T21:26:21.990Z,5.20
2022-12-20T21:28:49.200Z,5.20
2022-12-20T21:31:19.666Z,5.30
2022-12-20T21:33:47.107Z,5.30
2022-12-20T21:36:16.554Z,5.20
2022-12-20T21:38:55.002Z,5.20
2022-12-20T21:41:25.197Z,5.20
2022-12-20T21:43:55.750Z,5.20
2022-12-20T21:46:22.859Z,5.30
2022-12-20T21:48:50.126Z,5.30
2022-12-20T21:51:20.153Z,5.20
2022-12-20T21:53:49.520Z,5.20
2022-12-20T21:56:17.439Z,5.20
2022-12-20T21:58:48.956Z,5.20
2022-12-20T22:01:20.307Z,5.20
2022-12-20T22:03:51.757Z,5.20
2022-12-20T22:06:19.681Z,5.20
2022-12-20T22:08:47.023Z,5.30
2022-12-20T22:11:16.595Z,5.20
2022-12-20T22:13:43.930Z,5.20
2022-12-20T22:16:14.927Z,5.10
2022-12-20T22:18:43.623Z,5.10
2022-12-20T22:21:12.895Z,5.10
2022-12-20T22:23:40.644Z,5.20
2022-12-20T22:26:16.337Z,5.10
2022-12-20T22:28:58.700Z,5.10
2022-12-20T22:31:27.105Z,5.20
2022-12-20T22:33:56.076Z,5.10
2022-12-20T22:36:23.682Z,5.10
2022-12-20T22:38:57.468Z,5.10
2022-12-20T22:41:28.881Z,5.10
2022-12-20T22:43:57.848Z,5.10
2022-12-20T22:46:25.616Z,5.10
2022-12-20T22:48:52.718Z,5.10
2022-12-20T22:51:21.799Z,5.10
2022-12-20T22:53:49.455Z,5.10
2022-12-20T22:56:18.955Z,5.10
2022-12-20T22:58:46.235Z,5.10
2022-12-20T23:01:15.745Z,5.10
2022-12-20T23:03:43.730Z,5.10
2022-12-20T23:06:14.472Z,5.10
2022-12-20T23:08:41.759Z,5.10
2022-12-20T23:11:41.399Z,5.20
2022-12-20T23:14:35.567Z,5.20
2022-12-20T23:17:03.620Z,5.20
2022-12-20T23:19:53.437Z,5.20
2022-12-20T23:22:41.140Z,5.20
2022-12-20T23:25:19.677Z,5.30
2022-12-20T23:27:48.944Z,5.30
2022-12-20T23:30:18.383Z,5.30
2022-12-20T23:32:45.642Z,5.40
2022-12-20T23:35:14.622Z,5.30
2022-12-20T23:37:42.751Z,5.40
2022-12-20T23:40:10.857Z,5.40
2022-12-20T23:42:38.048Z,5.40
2022-12-20T23:45:05.489Z,5.40
2022-12-20T23:47:32.930Z,5.40
2022-12-20T23:50:00.351Z,5.40
2022-12-20T23:52:27.423Z,5.40
2022-12-20T23:54:54.719Z,5.40
2022-12-20T23:57:21.722Z,5.40
2022-12-20T23:59:48.715Z,5.40
